sensor_id;sensor_type;location;lat;lon;timestamp;pressure;altitude;pressure_sealevel;temperature;humidity
77823;BME280;67013;49.730;17.292;2024-01-30T00:01:12;100379.39;;;0.77;73.42
77823;BME280;67013;49.730;17.292;2024-01-30T00:03:42;100379.73;;;0.77;73.35
77823;BME280;67013;49.730;17.292;2024-01-30T00:06:12;100378.02;;;0.78;73.16
77823;BME280;67013;49.730;17.292;2024-01-30T00:08:42;100375.96;;;0.80;73.33
77823;BME280;67013;49.730;17.292;2024-01-30T00:11:13;100374.25;;;0.81;73.24
77823;BME280;67013;49.730;17.292;2024-01-30T00:13:42;100373.23;;;0.82;73.24
77823;BME280;67013;49.730;17.292;2024-01-30T00:16:21;100371.17;;;0.80;73.14
77823;BME280;67013;49.730;17.292;2024-01-30T00:18:52;100365.69;;;0.80;73.18
77823;BME280;67013;49.730;17.292;2024-01-30T00:21:22;100367.23;;;0.77;73.27
77823;BME280;67013;49.730;17.292;2024-01-30T00:23:51;100367.40;;;0.75;73.44
77823;BME280;67013;49.730;17.292;2024-01-30T00:26:21;100364.18;;;0.73;73.41
77823;BME280;67013;49.730;17.292;2024-01-30T00:28:50;100366.75;;;0.72;73.46
77823;BME280;67013;49.730;17.292;2024-01-30T00:31:20;100368.11;;;0.69;73.40
77823;BME280;67013;49.730;17.292;2024-01-30T00:33:49;100370.33;;;0.65;73.59
77823;BME280;67013;49.730;17.292;2024-01-30T00:36:19;100368.45;;;0.63;73.51
77823;BME280;67013;49.730;17.292;2024-01-30T00:38:48;100365.88;;;0.62;73.67
77823;BME280;67013;49.730;17.292;2024-01-30T00:41:20;100366.22;;;0.62;73.79
77823;BME280;67013;49.730;17.292;2024-01-30T00:43:50;100361.94;;;0.62;73.58
77823;BME280;67013;49.730;17.292;2024-01-30T00:46:19;100358.01;;;0.61;73.75
77823;BME280;67013;49.730;17.292;2024-01-30T00:48:49;100362.27;;;0.61;73.64
77823;BME280;67013;49.730;17.292;2024-01-30T00:51:18;100366.23;;;0.63;73.90
77823;BME280;67013;49.730;17.292;2024-01-30T00:53:48;100366.23;;;0.66;73.89
77823;BME280;67013;49.730;17.292;2024-01-30T00:56:18;100359.55;;;0.67;73.75
77823;BME280;67013;49.730;17.292;2024-01-30T00:58:48;100360.07;;;0.68;73.86
77823;BME280;67013;49.730;17.292;2024-01-30T01:01:18;100359.04;;;0.70;73.73
77823;BME280;67013;49.730;17.292;2024-01-30T01:03:47;100356.47;;;0.72;73.86
77823;BME280;67013;49.730;17.292;2024-01-30T01:06:16;100355.79;;;0.73;73.82
77823;BME280;67013;49.730;17.292;2024-01-30T01:08:46;100351.67;;;0.72;73.67
77823;BME280;67013;49.730;17.292;2024-01-30T01:11:16;100352.70;;;0.67;73.73
77823;BME280;67013;49.730;17.292;2024-01-30T01:13:45;100352.35;;;0.64;73.77
77823;BME280;67013;49.730;17.292;2024-01-30T01:16:15;100349.11;;;0.64;73.88
77823;BME280;67013;49.730;17.292;2024-01-30T01:18:44;100347.38;;;0.65;73.95
77823;BME280;67013;49.730;17.292;2024-01-30T01:21:14;100346.88;;;0.68;73.88
77823;BME280;67013;49.730;17.292;2024-01-30T01:23:43;100344.31;;;0.71;73.81
77823;BME280;67013;49.730;17.292;2024-01-30T01:26:13;100342.44;;;0.72;73.85
77823;BME280;67013;49.730;17.292;2024-01-30T01:28:43;100338.49;;;0.73;73.77
77823;BME280;67013;49.730;17.292;2024-01-30T01:31:12;100344.14;;;0.73;73.73
77823;BME280;67013;49.730;17.292;2024-01-30T01:33:42;100341.06;;;0.70;73.66
77823;BME280;67013;49.730;17.292;2024-01-30T01:36:12;100339.52;;;0.69;73.59
77823;BME280;67013;49.730;17.292;2024-01-30T01:38:42;100338.32;;;0.66;73.97
77823;BME280;67013;49.730;17.292;2024-01-30T01:41:12;100342.08;;;0.64;73.81
77823;BME280;67013;49.730;17.292;2024-01-30T01:43:41;100339.69;;;0.61;73.86
77823;BME280;67013;49.730;17.292;2024-01-30T01:46:11;100341.93;;;0.59;73.88
77823;BME280;67013;49.730;17.292;2024-01-30T01:48:40;100340.40;;;0.57;73.81
77823;BME280;67013;49.730;17.292;2024-01-30T01:51:11;100338.52;;;0.55;74.00
77823;BME280;67013;49.730;17.292;2024-01-30T01:53:41;100336.12;;;0.54;74.14
77823;BME280;67013;49.730;17.292;2024-01-30T01:56:11;100334.05;;;0.52;73.99
77823;BME280;67013;49.730;17.292;2024-01-30T01:58:41;100335.25;;;0.49;73.99
77823;BME280;67013;49.730;17.292;2024-01-30T02:01:12;100336.27;;;0.46;74.26
77823;BME280;67013;49.730;17.292;2024-01-30T02:03:43;100335.94;;;0.45;74.24
77823;BME280;67013;49.730;17.292;2024-01-30T02:06:13;100342.12;;;0.44;74.31
77823;BME280;67013;49.730;17.292;2024-01-30T02:08:43;100343.49;;;0.42;74.25
77823;BME280;67013;49.730;17.292;2024-01-30T02:11:12;100335.95;;;0.42;74.37
77823;BME280;67013;49.730;17.292;2024-01-30T02:13:43;100339.90;;;0.43;74.25
77823;BME280;67013;49.730;17.292;2024-01-30T02:16:13;100333.57;;;0.42;74.38
77823;BME280;67013;49.730;17.292;2024-01-30T02:18:42;100329.46;;;0.43;74.40
77823;BME280;67013;49.730;17.292;2024-01-30T02:21:15;100329.96;;;0.43;74.21
77823;BME280;67013;49.730;17.292;2024-01-30T02:23:48;100329.80;;;0.43;74.28
77823;BME280;67013;49.730;17.292;2024-01-30T02:26:17;100328.42;;;0.43;74.36
77823;BME280;67013;49.730;17.292;2024-01-30T02:28:47;100331.17;;;0.42;74.21
77823;BME280;67013;49.730;17.292;2024-01-30T02:31:16;100327.58;;;0.41;74.32
77823;BME280;67013;49.730;17.292;2024-01-30T02:33:46;100327.58;;;0.41;74.34
77823;BME280;67013;49.730;17.292;2024-01-30T02:36:15;100329.63;;;0.39;74.39
77823;BME280;67013;49.730;17.292;2024-01-30T02:38:44;100329.11;;;0.39;74.29
77823;BME280;67013;49.730;17.292;2024-01-30T02:41:14;100332.53;;;0.38;74.54
77823;BME280;67013;49.730;17.292;2024-01-30T02:43:44;100331.34;;;0.38;74.59
77823;BME280;67013;49.730;17.292;2024-01-30T02:46:13;100331.50;;;0.38;74.59
77823;BME280;67013;49.730;17.292;2024-01-30T02:48:42;100328.25;;;0.38;74.51
77823;BME280;67013;49.730;17.292;2024-01-30T02:51:12;100326.54;;;0.38;74.43
77823;BME280;67013;49.730;17.292;2024-01-30T02:53:41;100322.27;;;0.36;74.58
77823;BME280;67013;49.730;17.292;2024-01-30T02:56:11;100320.89;;;0.34;74.49
77823;BME280;67013;49.730;17.292;2024-01-30T02:58:41;100322.77;;;0.33;74.63
77823;BME280;67013;49.730;17.292;2024-01-30T03:01:11;100323.63;;;0.33;74.64
77823;BME280;67013;49.730;17.292;2024-01-30T03:03:40;100319.52;;;0.33;74.44
77823;BME280;67013;49.730;17.292;2024-01-30T03:06:11;100322.60;;;0.35;74.43
77823;BME280;67013;49.730;17.292;2024-01-30T03:08:40;100319.17;;;0.35;74.37
77823;BME280;67013;49.730;17.292;2024-01-30T03:11:10;100318.50;;;0.35;74.47
77823;BME280;67013;49.730;17.292;2024-01-30T03:13:39;100322.60;;;0.36;74.62
77823;BME280;67013;49.730;17.292;2024-01-30T03:16:09;100325.00;;;0.36;74.23
77823;BME280;67013;49.730;17.292;2024-01-30T03:18:39;100323.45;;;0.36;74.35
77823;BME280;67013;49.730;17.292;2024-01-30T03:21:08;100325.86;;;0.37;74.35
77823;BME280;67013;49.730;17.292;2024-01-30T03:23:37;100321.06;;;0.38;74.26
77823;BME280;67013;49.730;17.292;2024-01-30T03:26:07;100322.27;;;0.39;74.14
77823;BME280;67013;49.730;17.292;2024-01-30T03:28:37;100317.46;;;0.38;74.15
77823;BME280;67013;49.730;17.292;2024-01-30T03:31:06;100318.33;;;0.37;74.00
77823;BME280;67013;49.730;17.292;2024-01-30T03:33:37;100317.13;;;0.36;74.29
77823;BME280;67013;49.730;17.292;2024-01-30T03:36:08;100313.02;;;0.34;74.20
77823;BME280;67013;49.730;17.292;2024-01-30T03:38:38;100313.02;;;0.32;74.41
77823;BME280;67013;49.730;17.292;2024-01-30T03:41:10;100314.90;;;0.32;74.15
77823;BME280;67013;49.730;17.292;2024-01-30T03:43:40;100315.92;;;0.33;74.13
77823;BME280;67013;49.730;17.292;2024-01-30T03:46:11;100308.39;;;0.33;74.30
77823;BME280;67013;49.730;17.292;2024-01-30T03:48:40;100309.25;;;0.35;74.17
77823;BME280;67013;49.730;17.292;2024-01-30T03:51:10;100307.71;;;0.34;74.14
77823;BME280;67013;49.730;17.292;2024-01-30T03:53:43;100308.39;;;0.31;74.03
77823;BME280;67013;49.730;17.292;2024-01-30T03:56:14;100308.08;;;0.26;74.37
77823;BME280;67013;49.730;17.292;2024-01-30T03:58:43;100304.13;;;0.23;74.36
77823;BME280;67013;49.730;17.292;2024-01-30T04:01:15;100303.45;;;0.23;74.64
77823;BME280;67013;49.730;17.292;2024-01-30T04:03:45;100297.45;;;0.22;74.57
77823;BME280;67013;49.730;17.292;2024-01-30T04:06:14;100296.77;;;0.23;74.47
77823;BME280;67013;49.730;17.292;2024-01-30T04:08:44;100297.80;;;0.24;74.51
77823;BME280;67013;49.730;17.292;2024-01-30T04:11:13;100296.27;;;0.27;74.77
77823;BME280;67013;49.730;17.292;2024-01-30T04:13:43;100296.95;;;0.26;74.61
77823;BME280;67013;49.730;17.292;2024-01-30T04:16:22;100295.23;;;0.24;74.49
77823;BME280;67013;49.730;17.292;2024-01-30T04:18:52;100291.80;;;0.21;74.49
77823;BME280;67013;49.730;17.292;2024-01-30T04:21:23;100291.13;;;0.20;74.57
77823;BME280;67013;49.730;17.292;2024-01-30T04:23:53;100294.89;;;0.22;74.55
77823;BME280;67013;49.730;17.292;2024-01-30T04:26:22;100291.12;;;0.20;74.75
77823;BME280;67013;49.730;17.292;2024-01-30T04:28:52;100289.75;;;0.20;74.56
77823;BME280;67013;49.730;17.292;2024-01-30T04:31:21;100293.70;;;0.19;74.55
77823;BME280;67013;49.730;17.292;2024-01-30T04:33:51;100292.15;;;0.20;74.45
77823;BME280;67013;49.730;17.292;2024-01-30T04:36:20;100295.41;;;0.20;74.63
77823;BME280;67013;49.730;17.292;2024-01-30T04:38:49;100296.09;;;0.21;74.41
77823;BME280;67013;49.730;17.292;2024-01-30T04:41:19;100298.14;;;0.22;74.60
77823;BME280;67013;49.730;17.292;2024-01-30T04:43:48;100300.38;;;0.25;74.49
77823;BME280;67013;49.730;17.292;2024-01-30T04:46:18;100299.01;;;0.26;74.34
77823;BME280;67013;49.730;17.292;2024-01-30T04:48:47;100305.52;;;0.27;74.24
77823;BME280;67013;49.730;17.292;2024-01-30T04:51:17;100309.27;;;0.24;74.31
77823;BME280;67013;49.730;17.292;2024-01-30T04:53:46;100310.11;;;0.21;74.13
77823;BME280;67013;49.730;17.292;2024-01-30T04:56:15;100311.30;;;0.17;74.11
77823;BME280;67013;49.730;17.292;2024-01-30T04:58:45;100308.41;;;0.15;74.44
77823;BME280;67013;49.730;17.292;2024-01-30T05:01:17;100306.55;;;0.13;74.01
77823;BME280;67013;49.730;17.292;2024-01-30T05:03:47;100307.73;;;0.13;74.27
77823;BME280;67013;49.730;17.292;2024-01-30T05:06:26;100304.48;;;0.14;74.21
77823;BME280;67013;49.730;17.292;2024-01-30T05:08:55;100310.27;;;0.16;74.39
77823;BME280;67013;49.730;17.292;2024-01-30T05:11:25;100314.38;;;0.16;74.42
77823;BME280;67013;49.730;17.292;2024-01-30T05:13:54;100311.84;;;0.15;74.25
77823;BME280;67013;49.730;17.292;2024-01-30T05:16:24;100311.49;;;0.12;74.15
77823;BME280;67013;49.730;17.292;2024-01-30T05:18:53;100311.67;;;0.12;74.14
77823;BME280;67013;49.730;17.292;2024-01-30T05:21:23;100311.67;;;0.11;74.30
77823;BME280;67013;49.730;17.292;2024-01-30T05:23:52;100314.56;;;0.06;74.29
77823;BME280;67013;49.730;17.292;2024-01-30T05:26:22;100314.38;;;0.03;74.39
77823;BME280;67013;49.730;17.292;2024-01-30T05:28:51;100313.36;;;0.00;74.32
77823;BME280;67013;49.730;17.292;2024-01-30T05:31:21;100315.06;;;0.01;74.54
77823;BME280;67013;49.730;17.292;2024-01-30T05:33:50;100315.75;;;0.02;74.77
77823;BME280;67013;49.730;17.292;2024-01-30T05:36:20;100315.76;;;0.04;74.58
77823;BME280;67013;49.730;17.292;2024-01-30T05:38:50;100320.21;;;0.06;74.45
77823;BME280;67013;49.730;17.292;2024-01-30T05:41:19;100320.21;;;0.08;74.40
77823;BME280;67013;49.730;17.292;2024-01-30T05:43:50;100316.63;;;0.09;74.54
77823;BME280;67013;49.730;17.292;2024-01-30T05:46:19;100318.50;;;0.09;74.62
77823;BME280;67013;49.730;17.292;2024-01-30T05:48:49;100316.28;;;0.08;74.40
77823;BME280;67013;49.730;17.292;2024-01-30T05:51:18;100313.54;;;0.04;74.22
77823;BME280;67013;49.730;17.292;2024-01-30T05:53:48;100311.48;;;0.01;74.33
77823;BME280;67013;49.730;17.292;2024-01-30T05:56:17;100312.70;;;-0.03;74.47
77823;BME280;67013;49.730;17.292;2024-01-30T05:58:47;100315.25;;;-0.06;74.35
77823;BME280;67013;49.730;17.292;2024-01-30T06:01:18;100319.85;;;-0.09;74.13
77823;BME280;67013;49.730;17.292;2024-01-30T06:03:48;100318.14;;;-0.11;74.39
77823;BME280;67013;49.730;17.292;2024-01-30T06:06:17;100318.31;;;-0.11;74.38
77823;BME280;67013;49.730;17.292;2024-01-30T06:08:47;100317.29;;;-0.10;74.63
77823;BME280;67013;49.730;17.292;2024-01-30T06:11:16;100315.23;;;-0.10;74.69
77823;BME280;67013;49.730;17.292;2024-01-30T06:13:46;100314.73;;;-0.10;74.68
77823;BME280;67013;49.730;17.292;2024-01-30T06:16:15;100317.81;;;-0.08;74.67
77823;BME280;67013;49.730;17.292;2024-01-30T06:18:45;100319.70;;;-0.04;74.44
77823;BME280;67013;49.730;17.292;2024-01-30T06:21:15;100315.09;;;-0.01;74.46
77823;BME280;67013;49.730;17.292;2024-01-30T06:23:44;100312.51;;;0.02;74.37
77823;BME280;67013;49.730;17.292;2024-01-30T06:26:14;100316.44;;;0.05;74.42
77823;BME280;67013;49.730;17.292;2024-01-30T06:28:43;100318.33;;;0.06;74.21
77823;BME280;67013;49.730;17.292;2024-01-30T06:31:13;100318.84;;;0.06;74.35
77823;BME280;67013;49.730;17.292;2024-01-30T06:33:42;100319.01;;;0.06;74.46
77823;BME280;67013;49.730;17.292;2024-01-30T06:36:12;100318.33;;;0.07;74.34
77823;BME280;67013;49.730;17.292;2024-01-30T06:38:42;100319.19;;;0.07;74.19
77823;BME280;67013;49.730;17.292;2024-01-30T06:41:11;100320.04;;;0.06;74.32
77823;BME280;67013;49.730;17.292;2024-01-30T06:43:41;100322.27;;;0.05;74.27
77823;BME280;67013;49.730;17.292;2024-01-30T06:46:13;100328.24;;;0.05;74.11
77823;BME280;67013;49.730;17.292;2024-01-30T06:48:42;100329.61;;;0.06;74.13
77823;BME280;67013;49.730;17.292;2024-01-30T06:51:13;100326.71;;;0.09;74.20
77823;BME280;67013;49.730;17.292;2024-01-30T06:53:42;100328.09;;;0.13;74.30
77823;BME280;67013;49.730;17.292;2024-01-30T06:56:12;100325.86;;;0.16;74.29
77823;BME280;67013;49.730;17.292;2024-01-30T06:58:41;100329.11;;;0.23;73.98
77823;BME280;67013;49.730;17.292;2024-01-30T07:01:11;100329.79;;;0.31;74.14
77823;BME280;67013;49.730;17.292;2024-01-30T07:03:40;100331.33;;;0.38;73.98
77823;BME280;67013;49.730;17.292;2024-01-30T07:06:10;100333.38;;;0.46;73.85
77823;BME280;67013;49.730;17.292;2024-01-30T07:08:40;100333.38;;;0.55;74.05
77823;BME280;67013;49.730;17.292;2024-01-30T07:11:09;100333.86;;;0.63;73.96
77823;BME280;67013;49.730;17.292;2024-01-30T07:13:40;100334.39;;;0.70;73.81
77823;BME280;67013;49.730;17.292;2024-01-30T07:16:10;100334.02;;;0.79;73.84
77823;BME280;67013;49.730;17.292;2024-01-30T07:18:39;100334.34;;;0.88;73.64
77823;BME280;67013;49.730;17.292;2024-01-30T07:21:09;100334.48;;;0.97;73.32
77823;BME280;67013;49.730;17.292;2024-01-30T07:23:38;100335.13;;;1.08;73.46
77823;BME280;67013;49.730;17.292;2024-01-30T07:26:09;100337.30;;;1.23;73.39
77823;BME280;67013;49.730;17.292;2024-01-30T07:28:39;100335.70;;;1.39;73.31
77823;BME280;67013;49.730;17.292;2024-01-30T07:31:08;100335.77;;;1.58;73.32
77823;BME280;67013;49.730;17.292;2024-01-30T07:33:38;100337.40;;;1.74;73.02
77823;BME280;67013;49.730;17.292;2024-01-30T07:36:08;100338.16;;;1.90;72.69
77823;BME280;67013;49.730;17.292;2024-01-30T07:38:38;100334.95;;;2.07;72.23
77823;BME280;67013;49.730;17.292;2024-01-30T07:41:08;100330.17;;;2.26;71.86
77823;BME280;67013;49.730;17.292;2024-01-30T07:43:39;100328.14;;;2.43;71.43
77823;BME280;67013;49.730;17.292;2024-01-30T07:46:08;100326.42;;;2.62;71.19
77823;BME280;67013;49.730;17.292;2024-01-30T07:48:38;100329.84;;;2.81;70.77
77823;BME280;67013;49.730;17.292;2024-01-30T07:51:08;100329.13;;;3.00;70.39
77823;BME280;67013;49.730;17.292;2024-01-30T07:53:37;100331.31;;;3.19;69.98
77823;BME280;67013;49.730;17.292;2024-01-30T07:56:07;100331.07;;;3.38;69.68
77823;BME280;67013;49.730;17.292;2024-01-30T07:58:38;100330.98;;;3.58;69.07
77823;BME280;67013;49.730;17.292;2024-01-30T08:01:08;100326.56;;;3.79;68.61
77823;BME280;67013;49.730;17.292;2024-01-30T08:03:37;100326.42;;;4.00;68.50
77823;BME280;67013;49.730;17.292;2024-01-30T08:06:09;100324.85;;;4.24;67.96
77823;BME280;67013;49.730;17.292;2024-01-30T08:08:38;100323.61;;;4.46;67.36
77823;BME280;67013;49.730;17.292;2024-01-30T08:11:08;100326.35;;;4.67;66.71
77823;BME280;67013;49.730;17.292;2024-01-30T08:13:37;100328.54;;;4.88;66.03
77823;BME280;67013;49.730;17.292;2024-01-30T08:16:08;100330.52;;;5.12;65.47
77823;BME280;67013;49.730;17.292;2024-01-30T08:18:37;100332.95;;;5.36;65.11
77823;BME280;67013;49.730;17.292;2024-01-30T08:21:07;100332.30;;;5.59;64.62
77823;BME280;67013;49.730;17.292;2024-01-30T08:23:37;100329.88;;;5.83;64.18
77823;BME280;67013;49.730;17.292;2024-01-30T08:26:07;100328.56;;;6.11;64.03
77823;BME280;67013;49.730;17.292;2024-01-30T08:28:36;100325.46;;;6.39;63.10
77823;BME280;67013;49.730;17.292;2024-01-30T08:31:06;100324.20;;;6.61;62.50
77823;BME280;67013;49.730;17.292;2024-01-30T08:33:35;100329.25;;;6.87;62.25
77823;BME280;67013;49.730;17.292;2024-01-30T08:36:05;100330.94;;;7.13;61.66
77823;BME280;67013;49.730;17.292;2024-01-30T08:38:35;100332.00;;;7.43;61.49
77823;BME280;67013;49.730;17.292;2024-01-30T08:41:05;100327.85;;;7.72;60.76
77823;BME280;67013;49.730;17.292;2024-01-30T08:43:34;100328.02;;;8.00;60.27
77823;BME280;67013;49.730;17.292;2024-01-30T08:46:04;100321.88;;;8.30;59.45
77823;BME280;67013;49.730;17.292;2024-01-30T08:48:34;100323.35;;;8.54;58.25
77823;BME280;67013;49.730;17.292;2024-01-30T08:51:05;100325.45;;;8.74;57.33
77823;BME280;67013;49.730;17.292;2024-01-30T08:53:36;100323.20;;;8.94;56.76
77823;BME280;67013;49.730;17.292;2024-01-30T08:56:07;100324.76;;;9.12;56.41
77823;BME280;67013;49.730;17.292;2024-01-30T08:58:37;100328.97;;;9.35;55.80
77823;BME280;67013;49.730;17.292;2024-01-30T09:01:06;100328.92;;;9.55;54.93
77823;BME280;67013;49.730;17.292;2024-01-30T09:03:36;100331.27;;;9.76;54.36
77823;BME280;67013;49.730;17.292;2024-01-30T09:06:11;100329.62;;;9.96;53.94
77823;BME280;67013;49.730;17.292;2024-01-30T09:08:40;100331.44;;;10.16;53.86
77823;BME280;67013;49.730;17.292;2024-01-30T09:11:14;100320.33;;;10.37;53.10
77823;BME280;67013;49.730;17.292;2024-01-30T09:13:44;100322.84;;;10.56;52.38
77823;BME280;67013;49.730;17.292;2024-01-30T09:16:14;100322.54;;;10.72;51.55
77823;BME280;67013;49.730;17.292;2024-01-30T09:18:44;100325.84;;;10.88;51.36
77823;BME280;67013;49.730;17.292;2024-01-30T09:21:13;100327.21;;;11.04;50.59
77823;BME280;67013;49.730;17.292;2024-01-30T09:23:43;100328.70;;;11.18;49.92
77823;BME280;67013;49.730;17.292;2024-01-30T09:26:12;100329.78;;;11.28;49.28
77823;BME280;67013;49.730;17.292;2024-01-30T09:28:41;100329.89;;;11.34;49.08
77823;BME280;67013;49.730;17.292;2024-01-30T09:31:12;100333.98;;;11.40;49.03
77823;BME280;67013;49.730;17.292;2024-01-30T09:33:42;100337.05;;;11.49;48.94
77823;BME280;67013;49.730;17.292;2024-01-30T09:36:12;100338.83;;;11.56;48.31
77823;BME280;67013;49.730;17.292;2024-01-30T09:38:43;100332.39;;;11.59;48.22
77823;BME280;67013;49.730;17.292;2024-01-30T09:41:12;100331.81;;;11.64;48.29
77823;BME280;67013;49.730;17.292;2024-01-30T09:43:43;100328.26;;;11.66;47.71
77823;BME280;67013;49.730;17.292;2024-01-30T09:46:18;100325.88;;;11.69;47.63
77823;BME280;67013;49.730;17.292;2024-01-30T09:48:50;100324.27;;;11.73;47.62
77823;BME280;67013;49.730;17.292;2024-01-30T09:51:20;100325.44;;;11.78;47.40
77823;BME280;67013;49.730;17.292;2024-01-30T09:53:50;100321.36;;;11.87;47.51
77823;BME280;67013;49.730;17.292;2024-01-30T09:56:20;100321.10;;;11.96;47.45
77823;BME280;67013;49.730;17.292;2024-01-30T09:58:50;100321.63;;;12.03;47.32
77823;BME280;67013;49.730;17.292;2024-01-30T10:01:20;100317.30;;;12.10;47.08
77823;BME280;67013;49.730;17.292;2024-01-30T10:03:51;100316.41;;;12.18;46.69
77823;BME280;67013;49.730;17.292;2024-01-30T10:06:21;100313.11;;;12.24;45.94
77823;BME280;67013;49.730;17.292;2024-01-30T10:08:51;100310.13;;;12.29;45.87
77823;BME280;67013;49.730;17.292;2024-01-30T10:11:21;100307.86;;;12.32;45.59
77823;BME280;67013;49.730;17.292;2024-01-30T10:13:51;100305.86;;;12.37;45.68
77823;BME280;67013;49.730;17.292;2024-01-30T10:16:20;100301.54;;;12.40;45.05
77823;BME280;67013;49.730;17.292;2024-01-30T10:18:50;100298.13;;;12.42;44.86
77823;BME280;67013;49.730;17.292;2024-01-30T10:21:20;100296.75;;;12.38;44.22
77823;BME280;67013;49.730;17.292;2024-01-30T10:23:50;100290.51;;;12.26;44.04
77823;BME280;67013;49.730;17.292;2024-01-30T10:26:20;100293.45;;;12.16;44.47
77823;BME280;67013;49.730;17.292;2024-01-30T10:28:50;100285.26;;;12.13;44.51
77823;BME280;67013;49.730;17.292;2024-01-30T10:31:20;100281.46;;;12.08;44.71
77823;BME280;67013;49.730;17.292;2024-01-30T10:33:49;100281.73;;;12.10;45.16
77823;BME280;67013;49.730;17.292;2024-01-30T10:36:19;100281.68;;;12.15;45.28
77823;BME280;67013;49.730;17.292;2024-01-30T10:38:52;100276.42;;;12.19;44.84
77823;BME280;67013;49.730;17.292;2024-01-30T10:41:27;100274.08;;;12.24;44.99
77823;BME280;67013;49.730;17.292;2024-01-30T10:44:08;100275.20;;;12.26;44.40
77823;BME280;67013;49.730;17.292;2024-01-30T10:46:39;100274.40;;;12.24;44.37
77823;BME280;67013;49.730;17.292;2024-01-30T10:49:12;100273.52;;;12.24;44.26
77823;BME280;67013;49.730;17.292;2024-01-30T10:51:43;100267.14;;;12.23;44.03
77823;BME280;67013;49.730;17.292;2024-01-30T10:54:14;100268.20;;;12.19;44.11
77823;BME280;67013;49.730;17.292;2024-01-30T10:56:45;100261.93;;;12.19;44.49
77823;BME280;67013;49.730;17.292;2024-01-30T10:59:15;100262.25;;;12.23;44.41
77823;BME280;67013;49.730;17.292;2024-01-30T11:01:45;100258.42;;;12.23;44.10
77823;BME280;67013;49.730;17.292;2024-01-30T11:04:15;100258.09;;;12.22;44.29
77823;BME280;67013;49.730;17.292;2024-01-30T11:06:45;100257.55;;;12.23;43.96
77823;BME280;67013;49.730;17.292;2024-01-30T11:09:18;100252.36;;;12.22;44.26
77823;BME280;67013;49.730;17.292;2024-01-30T11:11:55;100247.70;;;12.20;43.81
77823;BME280;67013;49.730;17.292;2024-01-30T11:14:29;100243.41;;;12.16;43.83
77823;BME280;67013;49.730;17.292;2024-01-30T11:17:00;100238.94;;;12.12;44.01
77823;BME280;67013;49.730;17.292;2024-01-30T11:19:32;100236.63;;;12.09;43.98
77823;BME280;67013;49.730;17.292;2024-01-30T11:22:02;100237.10;;;12.10;44.97
77823;BME280;67013;49.730;17.292;2024-01-30T11:24:40;100235.64;;;12.14;45.23
77823;BME280;67013;49.730;17.292;2024-01-30T11:27:09;100233.32;;;12.19;44.93
77823;BME280;67013;49.730;17.292;2024-01-30T11:29:39;100230.42;;;12.15;44.49
77823;BME280;67013;49.730;17.292;2024-01-30T11:32:09;100229.65;;;12.09;44.32
77823;BME280;67013;49.730;17.292;2024-01-30T11:34:42;100221.44;;;12.02;44.21
77823;BME280;67013;49.730;17.292;2024-01-30T11:37:13;100218.23;;;11.96;44.29
77823;BME280;67013;49.730;17.292;2024-01-30T11:39:44;100217.70;;;11.89;44.40
77823;BME280;67013;49.730;17.292;2024-01-30T11:42:15;100215.30;;;11.77;44.37
77823;BME280;67013;49.730;17.292;2024-01-30T11:44:47;100210.29;;;11.70;44.51
77823;BME280;67013;49.730;17.292;2024-01-30T11:47:17;100205.92;;;11.66;44.65
77823;BME280;67013;49.730;17.292;2024-01-30T11:49:46;100206.57;;;11.63;44.53
77823;BME280;67013;49.730;17.292;2024-01-30T11:52:17;100202.44;;;11.55;44.82
77823;BME280;67013;49.730;17.292;2024-01-30T11:54:46;100198.63;;;11.51;45.33
77823;BME280;67013;49.730;17.292;2024-01-30T11:57:16;100195.06;;;11.49;45.45
77823;BME280;67013;49.730;17.292;2024-01-30T11:59:46;100191.29;;;11.44;45.42
77823;BME280;67013;49.730;17.292;2024-01-30T12:02:18;100189.98;;;11.42;45.53
77823;BME280;67013;49.730;17.292;2024-01-30T12:04:47;100181.95;;;11.39;45.45
77823;BME280;67013;49.730;17.292;2024-01-30T12:07:17;100182.23;;;11.37;45.39
77823;BME280;67013;49.730;17.292;2024-01-30T12:09:54;100180.84;;;11.33;45.32
77823;BME280;67013;49.730;17.292;2024-01-30T12:12:25;100179.48;;;11.28;45.25
77823;BME280;67013;49.730;17.292;2024-01-30T12:14:56;100176.64;;;11.22;45.30
77823;BME280;67013;49.730;17.292;2024-01-30T12:17:28;100175.36;;;11.16;45.07
77823;BME280;67013;49.730;17.292;2024-01-30T12:20:06;100168.15;;;11.07;45.01
77823;BME280;67013;49.730;17.292;2024-01-30T12:22:37;100163.48;;;10.95;45.03
77823;BME280;67013;49.730;17.292;2024-01-30T12:25:09;100163.66;;;10.80;45.48
77823;BME280;67013;49.730;17.292;2024-01-30T12:27:39;100167.29;;;10.73;45.70
77823;BME280;67013;49.730;17.292;2024-01-30T12:30:11;100165.39;;;10.64;45.75
77823;BME280;67013;49.730;17.292;2024-01-30T12:32:42;100158.15;;;10.55;45.87
77823;BME280;67013;49.730;17.292;2024-01-30T12:35:14;100157.81;;;10.43;46.28
77823;BME280;67013;49.730;17.292;2024-01-30T12:37:44;100156.41;;;10.36;46.52
77823;BME280;67013;49.730;17.292;2024-01-30T12:40:15;100153.90;;;10.29;46.73
77823;BME280;67013;49.730;17.292;2024-01-30T12:42:47;100151.20;;;10.27;47.09
77823;BME280;67013;49.730;17.292;2024-01-30T12:45:18;100151.41;;;10.26;47.06
77823;BME280;67013;49.730;17.292;2024-01-30T12:47:48;100145.04;;;10.21;47.26
77823;BME280;67013;49.730;17.292;2024-01-30T12:50:17;100142.92;;;10.13;47.17
77823;BME280;67013;49.730;17.292;2024-01-30T12:52:47;100140.84;;;10.05;46.93
77823;BME280;67013;49.730;17.292;2024-01-30T12:55:17;100138.20;;;9.97;47.29
77823;BME280;67013;49.730;17.292;2024-01-30T12:57:47;100137.59;;;9.92;47.39
77823;BME280;67013;49.730;17.292;2024-01-30T13:00:16;100132.90;;;9.83;47.39
77823;BME280;67013;49.730;17.292;2024-01-30T13:02:46;100128.83;;;9.72;47.50